createdAt,value
2019-05-22T00:02:09.139Z,94.66
2019-05-22T00:04:48.141Z,95.18
2019-05-22T00:07:17.416Z,94.84
2019-05-22T00:09:49.991Z,95.15
2019-05-22T00:12:20.745Z,94.19
2019-05-22T00:14:53.083Z,98.76
2019-05-22T00:17:25.950Z,100.00
2019-05-22T00:19:55.204Z,99.30
2019-05-22T00:22:26.824Z,100.00
2019-05-22T00:24:58.726Z,97.81
2019-05-22T00:27:30.943Z,96.73
2019-05-22T00:30:02.143Z,99.63
2019-05-22T00:32:33.003Z,98.84
2019-05-22T00:35:02.266Z,100.00
2019-05-22T00:37:32.487Z,99.78
2019-05-22T00:40:03.354Z,99.34
2019-05-22T00:42:34.474Z,99.76
2019-05-22T00:45:05.670Z,100.00
2019-05-22T00:47:37.039Z,100.00
2019-05-22T00:50:08.887Z,100.00
2019-05-22T00:52:48.814Z,100.00
2019-05-22T00:55:36.776Z,100.00
2019-05-22T00:58:13.584Z,100.00
2019-05-22T01:01:00.587Z,100.00
2019-05-22T01:03:33.994Z,100.00
2019-05-22T01:06:04.894Z,100.00
2019-05-22T01:08:37.180Z,100.00
2019-05-22T01:11:08.280Z,100.00
2019-05-22T01:13:38.165Z,100.00
2019-05-22T01:16:10.592Z,100.00
2019-05-22T01:18:42.215Z,100.00
2019-05-22T01:21:14.519Z,100.00
2019-05-22T01:23:45.830Z,100.00
2019-05-22T01:26:19.110Z,100.00
2019-05-22T01:28:48.840Z,100.00
2019-05-22T01:31:33.442Z,100.00
2019-05-22T01:34:07.392Z,100.00
2019-05-22T01:36:40.850Z,100.00
2019-05-22T01:39:21.478Z,100.00
2019-05-22T01:41:53.415Z,100.00
2019-05-22T01:44:24.856Z,100.00
2019-05-22T01:46:56.059Z,100.00
2019-05-22T01:49:27.200Z,100.00
2019-05-22T01:51:57.990Z,100.00
2019-05-22T01:54:27.911Z,100.00
2019-05-22T01:57:06.724Z,100.00
2019-05-22T01:59:36.945Z,100.00
2019-05-22T02:02:09.619Z,100.00
2019-05-22T02:04:39.292Z,100.00
2019-05-22T02:07:09.676Z,100.00
2019-05-22T02:09:40.864Z,100.00
2019-05-22T02:12:16.621Z,100.00
2019-05-22T02:14:48.484Z,100.00
2019-05-22T02:17:19.318Z,100.00
2019-05-22T02:19:49.156Z,100.00
2019-05-22T02:22:18.901Z,100.00
2019-05-22T02:24:52.133Z,100.00
2019-05-22T02:27:22.152Z,100.00
2019-05-22T02:29:55.131Z,100.00
2019-05-22T02:32:25.830Z,100.00
2019-05-22T02:34:57.044Z,100.00
2019-05-22T02:37:27.488Z,100.00
2019-05-22T02:39:57.421Z,100.00
2019-05-22T02:42:30.147Z,100.00
2019-05-22T02:45:00.024Z,100.00
2019-05-22T02:47:31.296Z,100.00
2019-05-22T02:50:01.423Z,100.00
2019-05-22T02:52:31.687Z,100.00
2019-05-22T02:55:00.945Z,100.00
2019-05-22T02:57:31.785Z,100.00
2019-05-22T03:00:01.798Z,100.00
2019-05-22T03:02:32.422Z,100.00
2019-05-22T03:05:07.335Z,100.00
2019-05-22T03:07:38.277Z,100.00
2019-05-22T03:10:10.198Z,100.00
2019-05-22T03:12:41.423Z,100.00
2019-05-22T03:15:13.155Z,100.00
2019-05-22T03:17:45.613Z,100.00
2019-05-22T03:20:18.882Z,100.00
2019-05-22T03:22:51.858Z,100.00
2019-05-22T03:25:22.387Z,100.00
2019-05-22T03:27:52.350Z,100.00
2019-05-22T03:30:24.889Z,100.00
2019-05-22T03:32:55.569Z,100.00
2019-05-22T03:35:28.208Z,100.00
2019-05-22T03:37:59.319Z,100.00
2019-05-22T03:40:30.182Z,100.00
2019-05-22T03:43:01.066Z,100.00
2019-05-22T03:45:31.491Z,100.00
2019-05-22T03:48:03.426Z,100.00
2019-05-22T03:50:32.656Z,100.00
2019-05-22T03:53:09.237Z,100.00
2019-05-22T03:55:38.464Z,100.00
2019-05-22T03:58:07.688Z,100.00
2019-05-22T04:00:42.991Z,100.00
2019-05-22T04:03:10.198Z,100.00
2019-05-22T04:05:39.434Z,100.00
2019-05-22T04:08:11.296Z,100.00
2019-05-22T04:10:46.614Z,100.00
2019-05-22T04:13:15.893Z,100.00
2019-05-22T04:15:45.813Z,100.00
2019-05-22T04:18:16.744Z,100.00
2019-05-22T04:20:46.006Z,100.00
2019-05-22T04:23:15.341Z,100.00
2019-05-22T04:25:44.589Z,100.00
2019-05-22T04:28:14.549Z,100.00
2019-05-22T04:30:44.490Z,100.00
2019-05-22T04:33:13.716Z,100.00
2019-05-22T04:35:42.975Z,95.59
2019-05-22T04:38:12.610Z,94.66
2019-05-22T04:40:50.075Z,93.90
2019-05-22T04:43:21.401Z,91.78
2019-05-22T04:45:51.332Z,87.00
2019-05-22T04:48:22.192Z,87.40
2019-05-22T04:50:53.288Z,86.55
2019-05-22T04:53:24.140Z,84.29
2019-05-22T04:55:54.120Z,84.43
2019-05-22T04:58:26.507Z,84.95
2019-05-22T05:00:56.375Z,84.98
2019-05-22T05:03:27.205Z,85.79
2019-05-22T05:05:56.763Z,85.63
2019-05-22T05:08:27.607Z,83.81
2019-05-22T05:10:58.503Z,82.90
2019-05-22T05:13:27.695Z,81.12
2019-05-22T05:15:57.345Z,82.68
2019-05-22T05:18:27.410Z,78.61
2019-05-22T05:20:56.639Z,79.01
2019-05-22T05:23:25.863Z,79.58
2019-05-22T05:25:55.126Z,78.17
2019-05-22T05:28:24.368Z,76.63
2019-05-22T05:30:53.595Z,75.61
2019-05-22T05:33:24.063Z,74.48
2019-05-22T05:35:53.488Z,73.36
2019-05-22T05:38:32.537Z,73.63
2019-05-22T05:41:02.373Z,73.05
2019-05-22T05:43:32.013Z,73.05
2019-05-22T05:46:01.380Z,74.55
2019-05-22T05:48:33.339Z,75.47
2019-05-22T05:51:33.848Z,75.63
2019-05-22T05:54:08.660Z,75.78
2019-05-22T05:56:39.422Z,73.73
2019-05-22T05:59:09.286Z,71.42
2019-05-22T06:02:10.580Z,69.80
2019-05-22T06:04:39.786Z,68.33
2019-05-22T06:07:34.995Z,68.21
2019-05-22T06:10:23.892Z,68.07
2019-05-22T06:12:53.259Z,68.26
2019-05-22T06:15:26.759Z,68.48
2019-05-22T06:18:14.592Z,68.96
2019-05-22T06:20:43.836Z,68.62
2019-05-22T06:23:32.791Z,65.93
2019-05-22T06:26:02.743Z,66.41
2019-05-22T06:28:33.893Z,62.53
2019-05-22T06:31:07.715Z,60.61
2019-05-22T06:33:37.964Z,58.93
2019-05-22T06:36:12.232Z,56.93
2019-05-22T06:38:48.065Z,56.28
2019-05-22T06:41:19.022Z,57.15
2019-05-22T06:44:05.791Z,59.53
2019-05-22T06:46:44.769Z,56.78
2019-05-22T06:49:31.895Z,54.22
2019-05-22T06:52:01.620Z,54.50
2019-05-22T06:54:31.031Z,56.65
2019-05-22T06:57:00.460Z,53.17
2019-05-22T06:59:30.989Z,57.87
2019-05-22T07:02:01.927Z,55.20
2019-05-22T07:04:31.719Z,52.39
2019-05-22T07:07:01.306Z,50.62
2019-05-22T07:09:30.820Z,45.23
2019-05-22T07:12:00.944Z,43.74
2019-05-22T07:14:30.290Z,43.73
2019-05-22T07:17:00.040Z,46.27
2019-05-22T07:19:30.345Z,47.42
2019-05-22T07:21:59.659Z,44.35
2019-05-22T07:24:29.504Z,42.77
2019-05-22T07:27:00.200Z,44.59
2019-05-22T07:29:30.226Z,44.73
2019-05-22T07:32:02.287Z,45.15
2019-05-22T07:34:32.107Z,45.75
2019-05-22T07:37:01.436Z,46.05
2019-05-22T07:39:30.671Z,46.30
2019-05-22T07:42:00.447Z,45.70
2019-05-22T07:44:29.687Z,46.47
2019-05-22T07:46:58.918Z,46.84
2019-05-22T07:49:29.292Z,45.69
2019-05-22T07:52:01.734Z,44.83
2019-05-22T07:54:30.992Z,49.94
2019-05-22T07:57:01.231Z,47.60
2019-05-22T07:59:30.463Z,47.83
2019-05-22T08:02:01.294Z,47.60
2019-05-22T08:04:31.695Z,47.89
2019-05-22T08:07:06.257Z,48.32
2019-05-22T08:09:36.031Z,49.11
2019-05-22T08:12:06.160Z,49.56
2019-05-22T08:14:35.392Z,49.28
2019-05-22T08:17:06.064Z,48.75
2019-05-22T08:19:35.404Z,47.91
2019-05-22T08:22:07.190Z,45.62
2019-05-22T08:24:36.131Z,46.29
2019-05-22T08:27:06.577Z,46.35
2019-05-22T08:29:35.912Z,46.77
2019-05-22T08:32:06.118Z,43.42
2019-05-22T08:34:35.757Z,44.84
2019-05-22T08:37:06.448Z,43.84
2019-05-22T08:39:37.457Z,43.53
2019-05-22T08:42:08.288Z,45.45
2019-05-22T08:44:39.119Z,42.50
2019-05-22T08:47:09.341Z,42.63
2019-05-22T08:49:38.605Z,44.78
2019-05-22T08:52:22.448Z,39.25
2019-05-22T08:54:41.035Z,40.45
2019-05-22T08:57:12.316Z,42.15
2019-05-22T08:59:42.945Z,39.14
2019-05-22T09:02:12.317Z,39.60
2019-05-22T09:04:41.646Z,42.56
2019-05-22T09:07:10.979Z,40.94
2019-05-22T09:09:40.248Z,43.42
2019-05-22T09:12:09.683Z,42.00
2019-05-22T09:14:38.936Z,38.47
2019-05-22T09:17:08.785Z,41.60
2019-05-22T09:19:37.997Z,39.22
2019-05-22T09:22:09.762Z,39.90
2019-05-22T09:24:39.130Z,38.44
2019-05-22T09:27:09.060Z,35.86
2019-05-22T09:29:38.387Z,37.74
2019-05-22T09:32:08.591Z,36.83
2019-05-22T09:34:38.601Z,37.50
2019-05-22T09:37:08.823Z,37.30
2019-05-22T09:39:38.112Z,38.38
2019-05-22T09:42:07.338Z,35.13
2019-05-22T09:44:36.586Z,35.88
2019-05-22T09:47:06.432Z,35.01
2019-05-22T09:49:35.659Z,36.39
2019-05-22T09:52:07.474Z,34.93
2019-05-22T09:54:36.695Z,36.41
2019-05-22T09:57:07.651Z,38.70
2019-05-22T09:59:36.918Z,38.25
2019-05-22T10:02:06.269Z,38.45
2019-05-22T10:04:36.097Z,35.52
2019-05-22T10:07:05.352Z,35.50
2019-05-22T10:09:34.714Z,36.79
2019-05-22T10:12:04.522Z,36.55
2019-05-22T10:14:35.304Z,35.60
2019-05-22T10:17:06.253Z,34.64
2019-05-22T10:19:35.573Z,36.58
2019-05-22T10:22:05.644Z,37.30
2019-05-22T10:24:35.392Z,35.58
2019-05-22T10:27:05.642Z,34.71
2019-05-22T10:29:35.025Z,38.94
2019-05-22T10:32:04.859Z,39.40
2019-05-22T10:34:34.503Z,37.23
2019-05-22T10:37:05.783Z,36.87
2019-05-22T10:39:35.095Z,37.53
2019-05-22T10:42:04.650Z,36.35
2019-05-22T10:44:33.895Z,37.85
2019-05-22T10:47:06.832Z,38.64
2019-05-22T10:49:36.104Z,37.81
2019-05-22T10:52:06.056Z,40.47
2019-05-22T10:54:35.304Z,38.80
2019-05-22T10:57:05.871Z,36.58
2019-05-22T10:59:36.345Z,38.20
2019-05-22T11:02:06.671Z,35.32
2019-05-22T11:04:36.379Z,37.20
2019-05-22T11:07:06.123Z,38.50
2019-05-22T11:09:36.356Z,38.27
2019-05-22T11:12:06.740Z,36.48
2019-05-22T11:14:36.052Z,36.54
2019-05-22T11:17:05.382Z,35.60
2019-05-22T11:19:34.788Z,34.03
2019-05-22T11:22:04.015Z,34.67
2019-05-22T11:24:33.750Z,35.29
2019-05-22T11:27:03.202Z,38.94
2019-05-22T11:29:32.961Z,36.62
2019-05-22T11:32:02.866Z,36.18
2019-05-22T11:34:32.216Z,34.72
2019-05-22T11:37:01.641Z,36.67
2019-05-22T11:39:39.354Z,37.23
2019-05-22T11:42:02.996Z,35.87
2019-05-22T11:44:32.273Z,39.48
2019-05-22T11:47:01.615Z,36.85
2019-05-22T11:49:30.884Z,38.99
2019-05-22T11:52:00.153Z,38.43
2019-05-22T11:54:29.474Z,37.94
2019-05-22T11:56:58.747Z,39.79
2019-05-22T11:59:28.582Z,39.14
2019-05-22T12:01:58.767Z,37.76
2019-05-22T12:04:45.797Z,37.97
2019-05-22T12:06:59.487Z,38.32
2019-05-22T12:09:29.429Z,38.17
2019-05-22T12:11:58.818Z,35.60
2019-05-22T12:14:28.043Z,35.64
2019-05-22T12:16:57.682Z,36.58
2019-05-22T12:19:27.350Z,35.23
2019-05-22T12:21:56.699Z,35.63
2019-05-22T12:24:28.701Z,35.54
2019-05-22T12:26:57.120Z,36.87
2019-05-22T12:29:27.406Z,36.26
2019-05-22T12:31:56.733Z,35.47
2019-05-22T12:34:27.098Z,34.89
2019-05-22T12:36:57.949Z,35.48
2019-05-22T12:39:28.467Z,35.05
2019-05-22T12:41:59.435Z,36.59
2019-05-22T12:44:29.291Z,35.34
2019-05-22T12:46:58.623Z,34.36
2019-05-22T12:49:29.051Z,33.69
2019-05-22T12:51:58.286Z,36.04
2019-05-22T12:54:45.094Z,34.08
2019-05-22T12:56:59.908Z,34.12
2019-05-22T12:59:29.750Z,33.21
2019-05-22T13:01:59.169Z,33.00
2019-05-22T13:04:30.428Z,34.20
2019-05-22T13:07:00.190Z,33.97
2019-05-22T13:09:29.530Z,36.94
2019-05-22T13:11:58.801Z,37.37
2019-05-22T13:14:28.138Z,38.08
2019-05-22T13:16:58.831Z,39.29
2019-05-22T13:19:28.677Z,38.18
2019-05-22T13:21:58.321Z,38.20
2019-05-22T13:24:29.365Z,36.93
2019-05-22T13:26:59.933Z,39.15
2019-05-22T13:29:30.450Z,39.78
2019-05-22T13:32:20.064Z,39.46
2019-05-22T13:35:09.089Z,38.99
2019-05-22T13:37:58.045Z,39.00
2019-05-22T13:40:46.299Z,39.49
2019-05-22T13:43:35.359Z,39.31
2019-05-22T13:46:24.191Z,39.89
2019-05-22T13:49:12.383Z,39.23
2019-05-22T13:52:00.872Z,40.87
2019-05-22T13:54:48.685Z,39.57
2019-05-22T13:57:37.460Z,38.46
2019-05-22T14:00:27.242Z,41.68
2019-05-22T14:03:16.151Z,40.12
2019-05-22T14:06:05.820Z,41.20
2019-05-22T14:08:54.396Z,39.56
2019-05-22T14:11:42.755Z,41.16
2019-05-22T14:14:31.327Z,38.71
2019-05-22T14:17:19.897Z,38.82
2019-05-22T14:20:08.792Z,36.02
2019-05-22T14:22:56.859Z,38.76
2019-05-22T14:25:45.396Z,40.65
2019-05-22T14:28:34.476Z,38.53
2019-05-22T14:31:23.201Z,38.78
2019-05-22T14:34:11.779Z,39.42
2019-05-22T14:37:00.083Z,39.12
2019-05-22T14:39:49.343Z,39.40
2019-05-22T14:42:38.291Z,38.84
2019-05-22T14:45:26.592Z,38.54
2019-05-22T14:48:15.647Z,35.91
2019-05-22T14:51:04.007Z,33.03
2019-05-22T14:53:54.419Z,31.47
2019-05-22T14:56:44.049Z,31.80
2019-05-22T14:59:32.694Z,34.71
2019-05-22T15:02:21.654Z,35.41
2019-05-22T15:05:10.390Z,37.73
2019-05-22T15:07:58.631Z,38.52
2019-05-22T15:10:46.821Z,39.11
2019-05-22T15:13:35.038Z,40.24
2019-05-22T15:16:23.271Z,41.49
2019-05-22T15:19:12.480Z,43.43
2019-05-22T15:22:00.626Z,40.07
2019-05-22T15:24:49.812Z,32.74
2019-05-22T15:27:38.755Z,29.69
2019-05-22T15:30:26.405Z,28.24
2019-05-22T15:33:16.035Z,29.92
2019-05-22T15:36:06.818Z,34.35
2019-05-22T15:38:55.515Z,36.09
2019-05-22T15:41:44.760Z,35.96
2019-05-22T15:44:33.075Z,40.44
2019-05-22T15:47:21.469Z,40.74
2019-05-22T15:50:10.943Z,41.59
2019-05-22T15:53:05.058Z,41.55
2019-05-22T15:55:53.718Z,40.52
2019-05-22T15:58:43.983Z,42.98
2019-05-22T16:01:33.834Z,42.60
2019-05-22T16:04:22.834Z,44.30
2019-05-22T16:07:11.663Z,43.33
2019-05-22T16:10:00.809Z,42.32
2019-05-22T16:12:49.212Z,45.55
2019-05-22T16:15:19.427Z,43.78
2019-05-22T16:17:50.091Z,45.57
2019-05-22T16:20:21.998Z,44.75
2019-05-22T16:22:51.927Z,47.46
2019-05-22T16:25:22.683Z,47.16
2019-05-22T16:27:53.840Z,46.87
2019-05-22T16:30:24.132Z,49.54
2019-05-22T16:32:54.379Z,48.37
2019-05-22T16:35:23.706Z,48.63
2019-05-22T16:37:53.084Z,49.23
2019-05-22T16:40:22.988Z,49.69
2019-05-22T16:42:57.651Z,47.62
2019-05-22T16:45:28.212Z,50.16
2019-05-22T16:47:59.067Z,49.12
2019-05-22T16:50:29.550Z,51.24
2019-05-22T16:52:59.815Z,50.71
2019-05-22T16:55:30.228Z,52.44
2019-05-22T16:58:00.579Z,51.59
2019-05-22T17:00:29.981Z,51.94
2019-05-22T17:02:59.826Z,54.13
2019-05-22T17:05:29.995Z,55.36
2019-05-22T17:07:59.837Z,55.68
2019-05-22T17:10:29.255Z,56.66
2019-05-22T17:12:59.130Z,58.34
2019-05-22T17:15:29.460Z,59.82
2019-05-22T17:17:58.743Z,58.22
2019-05-22T17:20:29.814Z,59.85
2019-05-22T17:22:59.046Z,60.19
2019-05-22T17:25:29.550Z,61.43
2019-05-22T17:28:00.823Z,63.43
2019-05-22T17:30:30.253Z,62.04
2019-05-22T17:33:00.839Z,63.41
2019-05-22T17:35:30.867Z,62.10
2019-05-22T17:38:00.186Z,65.47
2019-05-22T17:40:29.448Z,65.00
2019-05-22T17:42:59.486Z,66.72
2019-05-22T17:45:30.756Z,67.36
2019-05-22T17:48:00.685Z,67.93
2019-05-22T17:50:30.355Z,67.91
2019-05-22T17:52:59.998Z,67.47
2019-05-22T17:55:30.132Z,69.16
2019-05-22T17:57:59.637Z,69.29
2019-05-22T18:00:35.451Z,70.98
2019-05-22T18:03:05.216Z,71.59
2019-05-22T18:05:35.681Z,72.76
2019-05-22T18:08:05.600Z,72.71
2019-05-22T18:10:40.123Z,70.96
2019-05-22T18:13:09.353Z,69.87
2019-05-22T18:15:39.007Z,72.06
2019-05-22T18:18:09.972Z,73.87
2019-05-22T18:20:43.414Z,74.83
2019-05-22T18:23:10.553Z,76.34
2019-05-22T18:25:39.841Z,76.42
2019-05-22T18:28:10.722Z,75.46
2019-05-22T18:30:41.636Z,79.03
2019-05-22T18:33:11.363Z,78.98
2019-05-22T18:35:40.587Z,77.66
2019-05-22T18:38:09.837Z,77.36
2019-05-22T18:40:39.221Z,69.37
2019-05-22T18:43:09.209Z,70.18
2019-05-22T18:45:38.930Z,67.74
2019-05-22T18:48:14.105Z,66.79
2019-05-22T18:50:43.572Z,68.22
2019-05-22T18:53:12.899Z,69.12
2019-05-22T18:55:42.174Z,67.60
2019-05-22T18:58:11.508Z,68.53
2019-05-22T19:00:40.837Z,69.78
2019-05-22T19:03:10.522Z,67.12
2019-05-22T19:05:40.151Z,66.45
2019-05-22T19:08:09.377Z,68.50
2019-05-22T19:10:39.003Z,72.69
2019-05-22T19:13:08.828Z,73.82
2019-05-22T19:15:40.833Z,76.06
2019-05-22T19:18:10.498Z,75.00
2019-05-22T19:20:39.951Z,72.44
2019-05-22T19:23:09.178Z,70.95
2019-05-22T19:25:38.445Z,70.90
2019-05-22T19:28:07.783Z,70.37
2019-05-22T19:30:37.168Z,68.37
2019-05-22T19:33:06.583Z,68.03
2019-05-22T19:35:35.815Z,68.61
2019-05-22T19:38:06.243Z,69.87
2019-05-22T19:40:36.355Z,68.22
2019-05-22T19:43:06.387Z,68.06
2019-05-22T19:45:36.022Z,69.17
2019-05-22T19:48:05.900Z,71.29
2019-05-22T19:50:35.827Z,68.79
2019-05-22T19:53:18.372Z,68.45
2019-05-22T19:55:37.228Z,73.13
2019-05-22T19:58:07.369Z,79.95
2019-05-22T20:00:36.599Z,83.88
2019-05-22T20:03:06.382Z,84.09
2019-05-22T20:05:36.507Z,85.40
2019-05-22T20:08:06.307Z,86.68
2019-05-22T20:10:35.795Z,89.45
2019-05-22T20:13:05.927Z,90.20
2019-05-22T20:15:35.203Z,90.10
2019-05-22T20:18:05.341Z,87.88
2019-05-22T20:20:35.383Z,87.95
2019-05-22T20:23:05.623Z,88.47
2019-05-22T20:25:35.888Z,89.65
2019-05-22T20:28:05.747Z,89.47
2019-05-22T20:30:35.975Z,88.47
2019-05-22T20:33:06.287Z,88.76
2019-05-22T20:35:36.186Z,89.27
2019-05-22T20:38:06.144Z,91.17
2019-05-22T20:40:36.318Z,91.60
2019-05-22T20:43:07.980Z,91.05
2019-05-22T20:45:38.822Z,90.46
2019-05-22T20:48:12.626Z,90.37
2019-05-22T20:50:43.291Z,90.31
2019-05-22T20:53:13.414Z,88.79
2019-05-22T20:55:43.795Z,89.88
2019-05-22T20:58:14.324Z,86.80
2019-05-22T21:00:43.547Z,89.77
2019-05-22T21:03:13.466Z,89.03
2019-05-22T21:05:44.929Z,88.19
2019-05-22T21:08:16.108Z,88.28
2019-05-22T21:10:48.491Z,89.04
2019-05-22T21:13:19.903Z,88.94
2019-05-22T21:15:49.834Z,89.92
2019-05-22T21:18:21.665Z,90.87
2019-05-22T21:20:55.208Z,92.00
2019-05-22T21:23:23.033Z,91.87
2019-05-22T21:25:52.380Z,92.35
2019-05-22T21:28:22.811Z,92.18
2019-05-22T21:30:54.089Z,92.15
2019-05-22T21:33:24.603Z,90.77
2019-05-22T21:35:54.034Z,91.43
2019-05-22T21:38:23.975Z,92.88
2019-05-22T21:40:54.870Z,93.28
2019-05-22T21:43:24.373Z,94.75
2019-05-22T21:45:53.612Z,97.86
2019-05-22T21:48:23.983Z,97.99
2019-05-22T21:50:53.714Z,97.60
2019-05-22T21:53:22.939Z,96.07
2019-05-22T21:56:04.364Z,97.58
2019-05-22T21:58:24.598Z,97.71
2019-05-22T22:01:28.140Z,97.06
2019-05-22T22:04:05.831Z,96.28
2019-05-22T22:06:35.299Z,95.76
2019-05-22T22:09:06.303Z,95.87
2019-05-22T22:11:36.109Z,95.80
2019-05-22T22:14:06.513Z,97.03
2019-05-22T22:16:36.053Z,98.43
2019-05-22T22:19:06.379Z,97.25
2019-05-22T22:21:37.452Z,97.80
2019-05-22T22:24:08.569Z,98.35
2019-05-22T22:26:38.199Z,98.55
2019-05-22T22:29:08.183Z,99.68
2019-05-22T22:31:40.461Z,100.00
2019-05-22T22:34:18.722Z,98.87
2019-05-22T22:36:48.597Z,100.00
2019-05-22T22:39:19.404Z,100.00
2019-05-22T22:41:49.185Z,100.00
2019-05-22T22:44:18.416Z,100.00
2019-05-22T22:46:55.260Z,100.00
2019-05-22T22:49:27.675Z,100.00
2019-05-22T22:51:57.482Z,100.00
2019-05-22T22:54:28.225Z,100.00
2019-05-22T22:56:57.536Z,100.00
2019-05-22T22:59:28.022Z,100.00
2019-05-22T23:01:59.570Z,100.00
2019-05-22T23:04:29.928Z,100.00
2019-05-22T23:07:01.622Z,100.00
2019-05-22T23:09:32.040Z,100.00
2019-05-22T23:12:01.480Z,100.00
2019-05-22T23:14:31.508Z,100.00
2019-05-22T23:17:00.964Z,100.00
2019-05-22T23:19:51.688Z,100.00
2019-05-22T23:22:24.444Z,100.00
2019-05-22T23:24:56.230Z,100.00
2019-05-22T23:27:27.452Z,100.00
2019-05-22T23:29:58.062Z,100.00
2019-05-22T23:32:28.348Z,99.95
2019-05-22T23:34:59.158Z,98.86
2019-05-22T23:37:28.872Z,98.09
2019-05-22T23:39:59.505Z,97.88
2019-05-22T23:42:32.502Z,97.48
2019-05-22T23:45:03.990Z,98.13
2019-05-22T23:47:33.630Z,98.25
2019-05-22T23:50:03.773Z,100.00
2019-05-22T23:52:33.778Z,100.00
2019-05-22T23:55:03.711Z,100.00
2019-05-22T23:57:33.231Z,100.00
